createdAt,value
2023-07-18T00:00:39.745Z,92.83
2023-07-18T00:01:39.760Z,93.24
2023-07-18T00:02:39.715Z,93.24
2023-07-18T00:03:39.712Z,93.54
2023-07-18T00:04:39.693Z,93.44
2023-07-18T00:05:39.653Z,93.54
2023-07-18T00:06:39.627Z,93.74
2023-07-18T00:07:39.636Z,93.89
2023-07-18T00:08:39.599Z,93.79
2023-07-18T00:09:39.614Z,94.20
2023-07-18T00:10:39.607Z,94.91
2023-07-18T00:11:39.594Z,95.21
2023-07-18T00:12:39.566Z,94.60
2023-07-18T00:13:39.595Z,95.16
2023-07-18T00:14:39.557Z,94.85
2023-07-18T00:15:39.577Z,95.47
2023-07-18T00:16:39.599Z,95.47
2023-07-18T00:17:39.549Z,95.36
2023-07-18T00:18:39.527Z,95.97
2023-07-18T00:19:39.517Z,95.36
2023-07-18T00:20:39.530Z,95.67
2023-07-18T00:21:39.505Z,96.18
2023-07-18T00:22:39.535Z,95.77
2023-07-18T00:23:39.487Z,95.57
2023-07-18T00:24:39.462Z,95.41
2023-07-18T00:25:39.492Z,95.57
2023-07-18T00:26:39.505Z,95.47
2023-07-18T00:27:39.453Z,95.92
2023-07-18T00:28:39.442Z,95.72
2023-07-18T00:29:39.471Z,96.22
2023-07-18T00:30:39.411Z,96.18
2023-07-18T00:31:39.532Z,96.02
2023-07-18T00:32:39.439Z,95.51
2023-07-18T00:33:39.422Z,95.81
2023-07-18T00:34:39.387Z,96.73
2023-07-18T00:35:39.425Z,97.34
2023-07-18T00:36:39.372Z,96.88
2023-07-18T00:37:39.396Z,96.98
2023-07-18T00:38:39.350Z,96.88
2023-07-18T00:39:39.369Z,96.98
2023-07-18T00:40:39.352Z,96.98
2023-07-18T00:41:39.342Z,96.88
2023-07-18T00:42:39.360Z,97.19
2023-07-18T00:43:39.339Z,96.78
2023-07-18T00:44:39.317Z,97.19
2023-07-18T00:45:39.348Z,97.08
2023-07-18T00:46:39.381Z,97.08
2023-07-18T00:47:39.322Z,97.08
2023-07-18T00:48:39.325Z,96.88
2023-07-18T00:49:39.293Z,97.39
2023-07-18T00:50:39.266Z,97.19
2023-07-18T00:51:39.269Z,96.78
2023-07-18T00:52:39.284Z,97.08
2023-07-18T00:53:39.277Z,96.98
2023-07-18T00:54:39.222Z,97.13
2023-07-18T00:55:39.242Z,96.98
2023-07-18T00:56:39.200Z,97.08
2023-07-18T00:57:39.218Z,97.39
2023-07-18T00:58:39.194Z,97.39
2023-07-18T00:59:39.191Z,96.98
2023-07-18T01:00:39.175Z,96.88
2023-07-18T01:01:39.197Z,97.19
2023-07-18T01:02:39.295Z,97.44
2023-07-18T01:03:39.196Z,97.33
2023-07-18T01:04:39.174Z,97.44
2023-07-18T01:05:39.169Z,97.54
2023-07-18T01:06:39.157Z,97.54
2023-07-18T01:07:39.139Z,97.64
2023-07-18T01:08:39.167Z,97.33
2023-07-18T01:09:39.138Z,97.64
2023-07-18T01:10:39.118Z,97.54
2023-07-18T01:11:39.097Z,97.64
2023-07-18T01:12:39.073Z,97.44
2023-07-18T01:13:39.099Z,97.95
2023-07-18T01:14:39.072Z,98.20
2023-07-18T01:15:39.169Z,99.38
2023-07-18T01:16:39.053Z,98.30
2023-07-18T01:17:39.116Z,98.61
2023-07-18T01:18:39.025Z,98.25
2023-07-18T01:19:39.051Z,98.20
2023-07-18T01:20:39.061Z,98.40
2023-07-18T01:21:39.071Z,99.52
2023-07-18T01:22:39.046Z,98.71
2023-07-18T01:23:39.020Z,99.43
2023-07-18T01:24:38.984Z,99.47
2023-07-18T01:25:39.000Z,99.68
2023-07-18T01:26:38.968Z,99.57
2023-07-18T01:27:38.991Z,99.57
2023-07-18T01:28:38.969Z,99.37
2023-07-18T01:29:38.964Z,99.72
2023-07-18T01:30:38.961Z,99.72
2023-07-18T01:31:38.994Z,99.72
2023-07-18T01:32:38.977Z,99.93
2023-07-18T01:33:38.977Z,99.62
2023-07-18T01:34:38.905Z,99.62
2023-07-18T01:35:38.922Z,99.72
2023-07-18T01:36:38.928Z,99.52
2023-07-18T01:37:38.904Z,99.41
2023-07-18T01:38:38.881Z,99.46
2023-07-18T01:39:38.875Z,99.56
2023-07-18T01:40:38.867Z,99.99
2023-07-18T01:41:38.889Z,99.99
2023-07-18T01:42:38.904Z,99.99
2023-07-18T01:43:38.876Z,99.99
2023-07-18T01:44:38.862Z,99.99
2023-07-18T01:45:38.852Z,99.99
2023-07-18T01:46:38.821Z,99.99
2023-07-18T01:47:38.929Z,99.99
2023-07-18T01:48:38.815Z,99.99
2023-07-18T01:49:38.795Z,99.99
2023-07-18T01:50:38.782Z,99.99
2023-07-18T01:51:38.807Z,99.99
2023-07-18T01:52:38.780Z,99.99
2023-07-18T01:53:38.792Z,99.99
2023-07-18T01:54:38.752Z,99.99
2023-07-18T01:55:38.756Z,99.99
2023-07-18T01:56:38.728Z,99.99
2023-07-18T01:57:38.738Z,99.99
2023-07-18T01:58:38.723Z,99.99
2023-07-18T01:59:38.737Z,99.99
2023-07-18T02:00:38.754Z,99.99
2023-07-18T02:01:38.715Z,99.99
2023-07-18T02:02:38.815Z,99.99
2023-07-18T02:03:38.734Z,99.99
2023-07-18T02:04:38.676Z,99.99
2023-07-18T02:05:38.677Z,99.99
2023-07-18T02:06:38.683Z,99.99
2023-07-18T02:07:38.666Z,99.99
2023-07-18T02:08:38.650Z,99.99
2023-07-18T02:09:38.647Z,99.99
2023-07-18T02:10:38.647Z,99.99
2023-07-18T02:11:38.664Z,99.99
2023-07-18T02:12:38.611Z,99.99
2023-07-18T02:13:38.626Z,99.99
2023-07-18T02:14:38.599Z,99.99
2023-07-18T02:15:38.600Z,99.99
2023-07-18T02:16:38.613Z,99.99
2023-07-18T02:17:38.601Z,99.99
2023-07-18T02:18:38.570Z,99.99
2023-07-18T02:19:38.567Z,99.99
2023-07-18T02:20:38.596Z,99.99
2023-07-18T02:21:38.572Z,99.99
2023-07-18T02:22:38.577Z,99.99
2023-07-18T02:23:38.577Z,99.99
2023-07-18T02:24:38.556Z,99.99
2023-07-18T02:25:38.531Z,99.99
2023-07-18T02:26:38.513Z,99.99
2023-07-18T02:27:38.520Z,99.99
2023-07-18T02:28:38.524Z,99.99
2023-07-18T02:29:38.548Z,99.99
2023-07-18T02:30:38.544Z,99.99
2023-07-18T02:31:38.523Z,99.99
2023-07-18T02:32:38.480Z,99.99
2023-07-18T02:33:38.490Z,99.99
2023-07-18T02:34:38.508Z,99.99
2023-07-18T02:35:38.475Z,99.99
2023-07-18T02:36:38.460Z,99.99
2023-07-18T02:37:38.463Z,99.99
2023-07-18T02:38:38.431Z,99.99
2023-07-18T02:39:38.463Z,99.99
2023-07-18T02:40:38.459Z,99.99
2023-07-18T02:41:38.449Z,99.99
2023-07-18T02:42:38.440Z,99.99
2023-07-18T02:43:38.415Z,99.99
2023-07-18T02:44:38.389Z,99.99
2023-07-18T02:45:38.417Z,99.99
2023-07-18T02:46:38.419Z,99.99
2023-07-18T02:47:38.467Z,99.99
2023-07-18T02:48:38.361Z,99.99
2023-07-18T02:49:38.362Z,99.99
2023-07-18T02:50:38.373Z,99.99
2023-07-18T02:51:38.350Z,99.99
2023-07-18T02:52:38.330Z,99.99
2023-07-18T02:53:38.343Z,99.99
2023-07-18T02:54:38.322Z,99.99
2023-07-18T02:55:38.327Z,99.99
2023-07-18T02:56:38.311Z,99.99
2023-07-18T02:57:38.397Z,99.99
2023-07-18T02:58:38.299Z,99.99
2023-07-18T02:59:38.310Z,99.99
2023-07-18T03:00:38.312Z,99.99
2023-07-18T03:01:38.300Z,99.99
2023-07-18T03:02:38.334Z,99.99
2023-07-18T03:03:38.374Z,99.99
2023-07-18T03:04:38.231Z,99.99
2023-07-18T03:05:38.238Z,99.99
2023-07-18T03:06:38.227Z,99.99
2023-07-18T03:07:38.217Z,99.99
2023-07-18T03:08:38.239Z,99.99
2023-07-18T03:09:38.214Z,99.99
2023-07-18T03:10:38.213Z,99.99
2023-07-18T03:11:38.205Z,99.99
2023-07-18T03:12:38.178Z,99.99
2023-07-18T03:13:38.189Z,99.99
2023-07-18T03:14:38.183Z,99.99
2023-07-18T03:15:38.178Z,99.99
2023-07-18T03:16:38.199Z,99.99
2023-07-18T03:17:38.203Z,99.99
2023-07-18T03:18:38.128Z,99.99
2023-07-18T03:19:38.171Z,99.99
2023-07-18T03:20:38.132Z,99.99
2023-07-18T03:21:38.142Z,99.99
2023-07-18T03:22:38.192Z,99.99
2023-07-18T03:23:38.125Z,99.99
2023-07-18T03:24:38.114Z,99.99
2023-07-18T03:25:38.103Z,99.99
2023-07-18T03:26:38.082Z,99.99
2023-07-18T03:27:38.081Z,99.99
2023-07-18T03:28:38.094Z,99.99
2023-07-18T03:29:38.095Z,99.99
2023-07-18T03:30:38.056Z,99.99
2023-07-18T03:31:38.080Z,99.99
2023-07-18T03:32:38.034Z,99.99
2023-07-18T03:33:38.036Z,99.99
2023-07-18T03:34:38.020Z,99.99
2023-07-18T03:35:38.078Z,99.99
2023-07-18T03:36:38.502Z,99.99
2023-07-18T03:37:38.009Z,99.99
2023-07-18T03:38:37.995Z,99.99
2023-07-18T03:39:37.997Z,99.99
2023-07-18T03:40:37.966Z,99.99
2023-07-18T03:41:38.016Z,99.99
2023-07-18T03:42:37.948Z,99.99
2023-07-18T03:43:37.973Z,99.99
2023-07-18T03:44:37.932Z,99.99
2023-07-18T03:45:37.955Z,99.99
2023-07-18T03:46:38.043Z,99.99
2023-07-18T03:47:37.995Z,99.99
2023-07-18T03:48:37.968Z,99.99
2023-07-18T03:49:37.914Z,99.99
2023-07-18T03:50:37.908Z,99.99
2023-07-18T03:51:38.149Z,99.99
2023-07-18T03:52:37.892Z,99.99
2023-07-18T03:53:37.929Z,99.99
2023-07-18T03:54:37.893Z,99.99
2023-07-18T03:55:37.887Z,99.99
2023-07-18T03:56:37.874Z,99.99
2023-07-18T03:57:37.866Z,99.99
2023-07-18T03:58:37.848Z,99.99
2023-07-18T03:59:37.859Z,99.99
2023-07-18T04:00:37.843Z,99.99
2023-07-18T04:01:37.890Z,99.99
2023-07-18T04:02:37.855Z,99.99
2023-07-18T04:03:37.827Z,98.39
2023-07-18T04:04:37.812Z,98.08
2023-07-18T04:05:37.801Z,97.69
2023-07-18T04:06:37.796Z,95.70
2023-07-18T04:07:37.812Z,94.18
2023-07-18T04:08:39.244Z,93.28
2023-07-18T04:09:37.791Z,90.59
2023-07-18T04:10:37.749Z,89.42
2023-07-18T04:11:37.761Z,89.28
2023-07-18T04:12:37.754Z,87.35
2023-07-18T04:13:37.751Z,87.20
2023-07-18T04:14:37.727Z,85.84
2023-07-18T04:15:37.742Z,85.60
2023-07-18T04:16:37.747Z,84.44
2023-07-18T04:17:37.994Z,84.13
2023-07-18T04:18:37.733Z,83.97
2023-07-18T04:19:37.733Z,84.03
2023-07-18T04:20:37.671Z,83.83
2023-07-18T04:21:37.676Z,84.76
2023-07-18T04:22:37.672Z,87.29
2023-07-18T04:23:37.676Z,88.04
2023-07-18T04:24:37.680Z,87.69
2023-07-18T04:25:37.651Z,86.13
2023-07-18T04:26:37.646Z,86.25
2023-07-18T04:27:37.670Z,83.62
2023-07-18T04:28:37.654Z,82.57
2023-07-18T04:29:37.644Z,81.88
2023-07-18T04:30:37.611Z,80.08
2023-07-18T04:31:37.614Z,79.07
2023-07-18T04:32:37.630Z,79.27
2023-07-18T04:33:37.685Z,78.77
2023-07-18T04:34:37.625Z,78.93
2023-07-18T04:35:37.578Z,78.16
2023-07-18T04:36:37.573Z,78.33
2023-07-18T04:37:37.566Z,77.31
2023-07-18T04:38:37.536Z,77.51
2023-07-18T04:39:37.564Z,77.11
2023-07-18T04:40:37.532Z,76.97
2023-07-18T04:41:49.398Z,76.87
2023-07-18T04:42:38.555Z,76.67
2023-07-18T04:43:37.510Z,76.16
2023-07-18T04:44:37.479Z,76.46
2023-07-18T04:45:37.499Z,76.77
2023-07-18T04:46:37.767Z,75.65
2023-07-18T04:47:37.617Z,76.29
2023-07-18T04:48:37.450Z,76.09
2023-07-18T04:49:37.475Z,75.31
2023-07-18T04:50:37.462Z,74.40
2023-07-18T04:51:37.466Z,74.07
2023-07-18T04:52:37.432Z,74.07
2023-07-18T04:53:37.436Z,73.15
2023-07-18T04:54:37.393Z,72.61
2023-07-18T04:55:37.396Z,71.47
2023-07-18T04:56:37.372Z,70.49
2023-07-18T04:57:37.406Z,70.26
2023-07-18T04:58:37.392Z,70.22
2023-07-18T04:59:37.365Z,69.24
2023-07-18T05:00:37.368Z,68.91
2023-07-18T05:01:37.365Z,70.06
2023-07-18T05:02:37.365Z,68.95
2023-07-18T05:03:48.230Z,69.78
2023-07-18T05:04:38.457Z,69.78
2023-07-18T05:05:37.315Z,70.09
2023-07-18T05:06:37.295Z,70.36
2023-07-18T05:07:37.317Z,68.41
2023-07-18T05:08:37.270Z,68.17
2023-07-18T05:09:37.303Z,67.57
2023-07-18T05:10:37.256Z,67.70
2023-07-18T05:11:37.277Z,68.48
2023-07-18T05:12:37.235Z,68.81
2023-07-18T05:13:37.272Z,68.84
2023-07-18T05:14:37.223Z,69.71
2023-07-18T05:15:37.284Z,70.06
2023-07-18T05:16:37.205Z,67.57
2023-07-18T05:17:37.263Z,67.57
2023-07-18T05:18:37.254Z,66.73
2023-07-18T05:19:37.201Z,66.09
2023-07-18T05:20:37.172Z,65.69
2023-07-18T05:21:37.173Z,66.39
2023-07-18T05:22:37.169Z,65.59
2023-07-18T05:23:37.162Z,65.46
2023-07-18T05:24:37.170Z,65.36
2023-07-18T05:25:40.435Z,65.16
2023-07-18T05:26:37.118Z,64.32
2023-07-18T05:27:37.148Z,64.42
2023-07-18T05:28:37.108Z,64.48
2023-07-18T05:29:37.141Z,65.22
2023-07-18T05:30:37.109Z,65.06
2023-07-18T05:31:37.207Z,65.19
2023-07-18T05:32:37.090Z,65.39
2023-07-18T05:33:37.103Z,64.95
2023-07-18T05:34:37.080Z,63.71
2023-07-18T05:35:37.056Z,65.36
2023-07-18T05:36:37.062Z,65.69
2023-07-18T05:37:37.069Z,65.62
2023-07-18T05:38:37.028Z,65.62
2023-07-18T05:39:37.033Z,64.92
2023-07-18T05:40:37.055Z,65.12
2023-07-18T05:41:37.017Z,64.86
2023-07-18T05:42:36.986Z,63.92
2023-07-18T05:43:37.001Z,64.62
2023-07-18T05:44:37.050Z,64.09
2023-07-18T05:45:37.007Z,63.53
2023-07-18T05:46:39.783Z,62.23
2023-07-18T05:47:38.240Z,61.50
2023-07-18T05:48:36.960Z,60.77
2023-07-18T05:49:36.967Z,61.55
2023-07-18T05:50:36.967Z,60.62
2023-07-18T05:51:36.939Z,61.13
2023-07-18T05:52:36.922Z,61.38
2023-07-18T05:53:36.915Z,62.69
2023-07-18T05:54:39.499Z,62.19
2023-07-18T05:55:36.920Z,62.06
2023-07-18T05:56:36.896Z,63.22
2023-07-18T05:57:36.907Z,62.92
2023-07-18T05:58:36.878Z,62.06
2023-07-18T05:59:36.916Z,61.79
2023-07-18T06:00:36.881Z,61.76
2023-07-18T06:01:36.923Z,61.52
2023-07-18T06:02:36.878Z,61.02
2023-07-18T06:03:36.964Z,61.72
2023-07-18T06:04:36.847Z,61.86
2023-07-18T06:05:36.857Z,61.90
2023-07-18T06:06:36.827Z,61.52
2023-07-18T06:07:36.846Z,61.10
2023-07-18T06:08:36.802Z,61.70
2023-07-18T06:09:36.805Z,61.90
2023-07-18T06:10:36.790Z,61.17
2023-07-18T06:11:36.806Z,60.33
2023-07-18T06:12:36.777Z,60.74
2023-07-18T06:13:36.826Z,60.24
2023-07-18T06:14:36.815Z,60.01
2023-07-18T06:15:36.773Z,60.08
2023-07-18T06:16:36.792Z,60.77
2023-07-18T06:17:36.813Z,60.16
2023-07-18T06:18:36.726Z,60.74
2023-07-18T06:19:36.765Z,59.70
2023-07-18T06:20:36.717Z,59.00
2023-07-18T06:21:36.750Z,59.58
2023-07-18T06:22:36.758Z,59.20
2023-07-18T06:23:36.720Z,58.87
2023-07-18T06:24:36.693Z,56.79
2023-07-18T06:25:36.726Z,58.58
2023-07-18T06:26:36.675Z,59.53
2023-07-18T06:27:36.719Z,59.91
2023-07-18T06:28:36.674Z,58.12
2023-07-18T06:29:36.681Z,55.97
2023-07-18T06:30:36.728Z,54.91
2023-07-18T06:31:36.787Z,56.46
2023-07-18T06:32:36.642Z,56.01
2023-07-18T06:33:36.652Z,56.11
2023-07-18T06:34:36.658Z,55.69
2023-07-18T06:35:36.631Z,58.50
2023-07-18T06:36:36.663Z,58.85
2023-07-18T06:37:36.614Z,56.24
2023-07-18T06:38:36.603Z,54.99
2023-07-18T06:39:36.633Z,54.27
2023-07-18T06:40:36.619Z,55.77
2023-07-18T06:41:36.600Z,57.65
2023-07-18T06:42:36.561Z,57.69
2023-07-18T06:43:36.570Z,57.50
2023-07-18T06:44:36.556Z,56.11
2023-07-18T06:45:36.588Z,54.06
2023-07-18T06:46:36.560Z,54.27
2023-07-18T06:47:36.610Z,54.66
2023-07-18T06:48:36.519Z,54.54
2023-07-18T06:49:36.539Z,59.36
2023-07-18T06:50:36.611Z,60.21
2023-07-18T06:51:36.530Z,57.59
2023-07-18T06:52:37.112Z,55.69
2023-07-18T06:53:36.507Z,53.64
2023-07-18T06:54:36.482Z,53.78
2023-07-18T06:55:36.490Z,52.92
2023-07-18T06:56:36.498Z,53.52
2023-07-18T06:57:36.487Z,53.78
2023-07-18T06:58:36.461Z,52.99
2023-07-18T06:59:36.497Z,52.19
2023-07-18T07:00:36.467Z,53.66
2023-07-18T07:01:36.515Z,54.94
2023-07-18T07:02:36.463Z,57.35
2023-07-18T07:03:36.498Z,59.20
2023-07-18T07:04:36.418Z,60.74
2023-07-18T07:05:36.461Z,59.02
2023-07-18T07:06:36.407Z,55.91
2023-07-18T07:07:36.418Z,53.91
2023-07-18T07:08:36.385Z,52.64
2023-07-18T07:09:36.398Z,51.12
2023-07-18T07:10:36.381Z,50.28
2023-07-18T07:11:36.425Z,50.10
2023-07-18T07:12:37.456Z,50.35
2023-07-18T07:13:36.394Z,48.86
2023-07-18T07:14:36.349Z,49.16
2023-07-18T07:15:36.394Z,49.49
2023-07-18T07:16:36.454Z,47.80
2023-07-18T07:17:36.385Z,48.14
2023-07-18T07:18:36.342Z,48.52
2023-07-18T07:19:36.352Z,47.58
2023-07-18T07:20:36.326Z,46.05
2023-07-18T07:21:36.441Z,46.42
2023-07-18T07:22:36.403Z,45.04
2023-07-18T07:23:36.324Z,45.56
2023-07-18T07:24:36.280Z,45.26
2023-07-18T07:25:36.286Z,45.53
2023-07-18T07:26:36.295Z,45.26
2023-07-18T07:27:36.274Z,44.35
2023-07-18T07:28:36.269Z,42.57
2023-07-18T07:29:36.253Z,43.51
2023-07-18T07:30:36.258Z,41.81
2023-07-18T07:31:36.275Z,41.89
2023-07-18T07:32:36.395Z,41.99
2023-07-18T07:33:37.499Z,40.58
2023-07-18T07:34:37.705Z,39.86
2023-07-18T07:35:36.212Z,41.08
2023-07-18T07:36:36.247Z,42.19
2023-07-18T07:37:36.211Z,39.91
2023-07-18T07:38:36.183Z,41.61
2023-07-18T07:39:36.221Z,42.25
2023-07-18T07:40:36.182Z,41.52
2023-07-18T07:41:36.180Z,41.71
2023-07-18T07:42:36.232Z,40.70
2023-07-18T07:43:36.165Z,40.07
2023-07-18T07:44:36.134Z,39.18
2023-07-18T07:45:36.192Z,38.69
2023-07-18T07:46:36.151Z,39.09
2023-07-18T07:47:36.164Z,38.28
2023-07-18T07:48:36.119Z,38.06
2023-07-18T07:49:36.128Z,36.86
2023-07-18T07:50:36.134Z,34.89
2023-07-18T07:51:36.155Z,35.77
2023-07-18T07:52:36.098Z,33.49
2023-07-18T07:53:36.121Z,36.65
2023-07-18T07:54:36.103Z,35.83
2023-07-18T07:55:36.091Z,39.73
2023-07-18T07:56:36.066Z,41.46
2023-07-18T07:57:36.100Z,39.98
2023-07-18T07:58:36.057Z,40.15
2023-07-18T07:59:36.052Z,38.53
2023-07-18T08:00:36.053Z,37.38
2023-07-18T08:01:36.074Z,39.06
2023-07-18T08:02:36.082Z,39.03
2023-07-18T08:03:36.048Z,36.93
2023-07-18T08:04:36.043Z,36.50
2023-07-18T08:05:36.033Z,34.22
2023-07-18T08:06:36.027Z,33.70
2023-07-18T08:07:35.996Z,34.31
2023-07-18T08:08:35.994Z,33.70
2023-07-18T08:09:35.983Z,33.29
2023-07-18T08:10:35.963Z,34.56
2023-07-18T08:11:35.961Z,34.75
2023-07-18T08:12:35.987Z,34.22
2023-07-18T08:13:35.970Z,33.00
2023-07-18T08:14:36.162Z,33.08
2023-07-18T08:15:35.982Z,34.22
2023-07-18T08:16:35.965Z,33.12
2023-07-18T08:17:35.965Z,33.02
2023-07-18T08:18:35.934Z,32.89
2023-07-18T08:19:35.916Z,31.71
2023-07-18T08:20:35.874Z,32.02
2023-07-18T08:21:35.915Z,33.58
2023-07-18T08:22:35.893Z,37.05
2023-07-18T08:23:35.879Z,35.93
2023-07-18T08:24:35.884Z,37.05
2023-07-18T08:25:35.901Z,35.86
2023-07-18T08:26:35.860Z,37.13
2023-07-18T08:27:35.864Z,40.22
2023-07-18T08:28:35.836Z,40.03
2023-07-18T08:29:35.889Z,39.61
2023-07-18T08:30:35.849Z,40.05
2023-07-18T08:31:35.873Z,40.50
2023-07-18T08:32:35.863Z,40.36
2023-07-18T08:33:35.816Z,42.27
2023-07-18T08:34:35.803Z,42.11
2023-07-18T08:35:35.834Z,42.88
2023-07-18T08:36:35.781Z,41.14
2023-07-18T08:37:35.807Z,40.03
2023-07-18T08:38:35.793Z,38.67
2023-07-18T08:39:35.792Z,39.89
2023-07-18T08:40:35.808Z,38.55
2023-07-18T08:41:35.761Z,36.90
2023-07-18T08:42:35.746Z,37.78
2023-07-18T08:43:35.776Z,37.76
2023-07-18T08:44:35.745Z,37.76
2023-07-18T08:45:35.758Z,38.31
2023-07-18T08:46:35.796Z,38.23
2023-07-18T08:47:35.782Z,38.86
2023-07-18T08:48:35.726Z,39.75
2023-07-18T08:49:36.727Z,38.41
2023-07-18T08:50:35.709Z,36.46
2023-07-18T08:51:35.705Z,35.84
2023-07-18T08:52:35.726Z,35.15
2023-07-18T08:53:35.697Z,35.17
2023-07-18T08:54:35.898Z,37.94
2023-07-18T08:55:35.730Z,38.68
2023-07-18T08:56:35.659Z,39.58
2023-07-18T08:57:35.680Z,39.83
2023-07-18T08:58:35.665Z,38.47
2023-07-18T08:59:35.681Z,36.70
2023-07-18T09:00:35.634Z,35.97
2023-07-18T09:01:35.660Z,36.91
2023-07-18T09:02:35.712Z,38.13
2023-07-18T09:03:35.662Z,36.90
2023-07-18T09:04:35.608Z,36.91
2023-07-18T09:05:35.637Z,38.72
2023-07-18T09:06:35.583Z,41.14
2023-07-18T09:07:35.601Z,39.91
2023-07-18T09:08:35.568Z,39.81
2023-07-18T09:09:35.590Z,37.76
2023-07-18T09:10:35.570Z,38.49
2023-07-18T09:11:35.611Z,39.55
2023-07-18T09:12:35.548Z,40.94
2023-07-18T09:13:35.555Z,42.25
2023-07-18T09:14:35.578Z,41.52
2023-07-18T09:15:35.555Z,39.55
2023-07-18T09:16:35.521Z,39.81
2023-07-18T09:17:35.683Z,38.07
2023-07-18T09:18:35.529Z,37.21
2023-07-18T09:19:35.526Z,38.49
2023-07-18T09:20:35.520Z,38.02
2023-07-18T09:21:35.536Z,38.07
2023-07-18T09:22:35.535Z,39.16
2023-07-18T09:23:35.508Z,36.91
2023-07-18T09:24:35.476Z,34.92
2023-07-18T09:25:35.512Z,33.98
2023-07-18T09:26:35.457Z,33.58
2023-07-18T09:27:35.483Z,36.52
2023-07-18T09:28:35.446Z,37.30
2023-07-18T09:29:35.456Z,35.99
2023-07-18T09:30:35.422Z,38.11
2023-07-18T09:31:35.485Z,37.08
2023-07-18T09:32:35.470Z,36.87
2023-07-18T09:33:35.416Z,36.32
2023-07-18T09:34:35.414Z,34.77
2023-07-18T09:35:35.449Z,33.34
2023-07-18T09:36:36.979Z,33.03
2023-07-18T09:37:35.416Z,32.53
2023-07-18T09:38:35.384Z,32.67
2023-07-18T09:39:35.405Z,33.74
2023-07-18T09:40:35.399Z,34.44
2023-07-18T09:41:35.427Z,35.72
2023-07-18T09:42:35.374Z,37.91
2023-07-18T09:43:36.727Z,37.34
2023-07-18T09:44:37.301Z,39.17
2023-07-18T09:45:35.343Z,39.59
2023-07-18T09:46:35.446Z,39.14
2023-07-18T09:47:35.375Z,38.57
2023-07-18T09:48:44.595Z,36.02
2023-07-18T09:49:40.795Z,34.92
2023-07-18T09:50:35.298Z,36.73
2023-07-18T09:51:35.334Z,36.44
2023-07-18T09:52:35.295Z,34.63
2023-07-18T09:53:35.312Z,34.95
2023-07-18T09:54:35.348Z,35.68
2023-07-18T09:55:35.300Z,36.19
2023-07-18T09:56:35.245Z,35.49
2023-07-18T09:57:35.277Z,35.91
2023-07-18T09:58:35.237Z,35.30
2023-07-18T09:59:35.248Z,35.58
2023-07-18T10:00:35.228Z,37.24
2023-07-18T10:01:35.290Z,38.98
2023-07-18T10:02:35.354Z,39.77
2023-07-18T10:03:35.282Z,38.31
2023-07-18T10:04:35.224Z,37.24
2023-07-18T10:05:35.251Z,35.30
2023-07-18T10:06:35.193Z,33.59
2023-07-18T10:07:35.200Z,32.90
2023-07-18T10:08:35.193Z,32.97
2023-07-18T10:09:35.187Z,35.76
2023-07-18T10:10:35.199Z,37.38
2023-07-18T10:11:35.208Z,35.45
2023-07-18T10:12:35.178Z,34.91
2023-07-18T10:13:35.211Z,36.46
2023-07-18T10:14:35.132Z,35.24
2023-07-18T10:15:35.151Z,34.77
2023-07-18T10:16:35.142Z,33.34
2023-07-18T10:17:35.339Z,31.56
2023-07-18T10:18:35.153Z,31.82
2023-07-18T10:19:35.121Z,31.61
2023-07-18T10:20:37.868Z,31.46
2023-07-18T10:21:35.116Z,34.66
2023-07-18T10:22:35.142Z,33.36
2023-07-18T10:23:35.091Z,33.00
2023-07-18T10:24:35.086Z,30.90
2023-07-18T10:25:35.067Z,29.79
2023-07-18T10:26:35.059Z,30.46
2023-07-18T10:27:35.050Z,30.08
2023-07-18T10:28:35.036Z,29.27
2023-07-18T10:29:35.044Z,29.47
2023-07-18T10:30:35.058Z,29.66
2023-07-18T10:31:35.070Z,28.77
2023-07-18T10:32:35.058Z,28.95
2023-07-18T10:33:35.014Z,29.63
2023-07-18T10:34:34.999Z,29.68
2023-07-18T10:35:35.037Z,30.56
2023-07-18T10:36:34.976Z,29.89
2023-07-18T10:37:35.021Z,29.00
2023-07-18T10:38:35.015Z,29.76
2023-07-18T10:39:34.977Z,28.86
2023-07-18T10:40:34.949Z,29.55
2023-07-18T10:41:34.984Z,29.85
2023-07-18T10:42:34.944Z,28.59
2023-07-18T10:43:34.952Z,30.17
2023-07-18T10:44:34.930Z,29.37
2023-07-18T10:45:35.004Z,28.89
2023-07-18T10:46:34.979Z,29.19
2023-07-18T10:47:34.960Z,28.77
2023-07-18T10:48:34.890Z,28.96
2023-07-18T10:49:34.921Z,29.68
2023-07-18T10:50:34.893Z,29.89
2023-07-18T10:51:34.904Z,30.49
2023-07-18T10:52:34.901Z,29.27
2023-07-18T10:53:34.930Z,27.78
2023-07-18T10:54:34.849Z,28.86
2023-07-18T10:55:34.887Z,28.85
2023-07-18T10:56:34.869Z,27.78
2023-07-18T10:57:34.898Z,28.65
2023-07-18T10:58:34.854Z,28.22
2023-07-18T10:59:34.841Z,28.03
2023-07-18T11:00:34.827Z,31.18
2023-07-18T11:01:34.854Z,31.51
2023-07-18T11:02:34.844Z,31.10
2023-07-18T11:03:34.865Z,30.77
2023-07-18T11:04:34.860Z,29.27
2023-07-18T11:05:34.807Z,30.35
2023-07-18T11:06:34.786Z,30.15
2023-07-18T11:07:34.817Z,30.25
2023-07-18T11:08:34.772Z,29.66
2023-07-18T11:09:34.814Z,30.38
2023-07-18T11:10:34.861Z,30.97
2023-07-18T11:11:34.805Z,30.38
2023-07-18T11:12:34.748Z,30.60
2023-07-18T11:13:34.789Z,31.48
2023-07-18T11:14:34.737Z,33.10
2023-07-18T11:15:34.729Z,34.17
2023-07-18T11:16:34.799Z,34.05
2023-07-18T11:17:34.739Z,33.94
2023-07-18T11:18:34.787Z,33.11
2023-07-18T11:19:34.705Z,32.42
2023-07-18T11:20:34.688Z,33.23
2023-07-18T11:21:34.702Z,32.85
2023-07-18T11:22:34.756Z,31.86
2023-07-18T11:23:34.677Z,32.24
2023-07-18T11:24:34.677Z,32.04
2023-07-18T11:25:34.674Z,31.72
2023-07-18T11:26:34.650Z,32.41
2023-07-18T11:27:34.669Z,32.52
2023-07-18T11:28:34.619Z,32.97
2023-07-18T11:29:34.643Z,33.28
2023-07-18T11:30:34.633Z,35.22
2023-07-18T11:31:40.777Z,34.91
2023-07-18T11:32:35.671Z,35.30
2023-07-18T11:33:34.616Z,34.36
2023-07-18T11:34:34.598Z,33.65
2023-07-18T11:35:34.623Z,33.04
2023-07-18T11:36:34.605Z,33.23
2023-07-18T11:37:41.545Z,31.73
2023-07-18T11:38:35.541Z,32.06
2023-07-18T11:39:34.584Z,32.95
2023-07-18T11:40:34.555Z,34.38
2023-07-18T11:41:34.555Z,35.02
2023-07-18T11:42:34.533Z,34.79
2023-07-18T11:43:34.540Z,35.02
2023-07-18T11:44:34.542Z,35.91
2023-07-18T11:45:34.525Z,35.30
2023-07-18T11:46:34.509Z,35.07
2023-07-18T11:47:34.614Z,34.28
2023-07-18T11:48:34.593Z,34.99
2023-07-18T11:49:34.524Z,35.07
2023-07-18T11:50:34.493Z,35.24
2023-07-18T11:51:34.522Z,34.51
2023-07-18T11:52:34.454Z,34.03
2023-07-18T11:53:34.501Z,34.23
2023-07-18T11:54:34.492Z,33.54
2023-07-18T11:55:34.477Z,35.12
2023-07-18T11:56:34.418Z,32.93
2023-07-18T11:57:34.475Z,31.63
2023-07-18T11:58:34.459Z,32.51
2023-07-18T11:59:34.474Z,31.92
2023-07-18T12:00:34.392Z,32.51
2023-07-18T12:01:36.384Z,33.03
2023-07-18T12:02:34.484Z,33.51
2023-07-18T12:03:34.514Z,33.23
2023-07-18T12:04:34.409Z,33.36
2023-07-18T12:05:34.410Z,34.55
2023-07-18T12:06:34.379Z,35.66
2023-07-18T12:07:34.398Z,37.43
2023-07-18T12:08:34.376Z,37.05
2023-07-18T12:09:34.346Z,36.76
2023-07-18T12:10:34.369Z,36.94
2023-07-18T12:11:34.335Z,36.72
2023-07-18T12:12:34.333Z,36.33
2023-07-18T12:13:34.336Z,35.78
2023-07-18T12:14:34.351Z,35.14
2023-07-18T12:15:37.131Z,34.91
2023-07-18T12:16:34.352Z,35.50
2023-07-18T12:17:34.357Z,34.20
2023-07-18T12:18:34.272Z,33.53
2023-07-18T12:19:34.296Z,33.80
2023-07-18T12:20:34.291Z,34.17
2023-07-18T12:21:34.315Z,33.39
2023-07-18T12:22:34.357Z,33.53
2023-07-18T12:23:34.253Z,33.23
2023-07-18T12:24:34.259Z,33.92
2023-07-18T12:25:34.264Z,33.33
2023-07-18T12:26:34.235Z,33.03
2023-07-18T12:27:34.259Z,33.91
2023-07-18T12:28:34.197Z,33.61
2023-07-18T12:29:34.237Z,33.51
2023-07-18T12:30:34.208Z,32.90
2023-07-18T12:31:34.295Z,33.20
2023-07-18T12:32:34.280Z,33.01
2023-07-18T12:33:34.277Z,33.22
2023-07-18T12:34:34.162Z,33.00
2023-07-18T12:35:34.180Z,32.80
2023-07-18T12:36:34.154Z,32.39
2023-07-18T12:37:34.159Z,32.49
2023-07-18T12:38:34.147Z,32.23
2023-07-18T12:39:34.148Z,33.77
2023-07-18T12:40:34.199Z,34.06
2023-07-18T12:41:34.166Z,33.34
2023-07-18T12:42:34.102Z,33.92
2023-07-18T12:43:34.144Z,34.01
2023-07-18T12:44:34.132Z,34.33
2023-07-18T12:45:34.119Z,34.13
2023-07-18T12:46:34.118Z,33.54
2023-07-18T12:47:34.172Z,33.94
2023-07-18T12:48:34.089Z,33.34
2023-07-18T12:50:34.106Z,35.28
2023-07-18T12:51:34.114Z,35.57
2023-07-18T12:52:34.065Z,35.07
2023-07-18T12:53:34.072Z,34.67